KCDA

Details ICAO KCDA
Name Caledonia Co
Region United States
Timezone America/New_York (UTC-5.0)
Plans Departing 4
Arriving 3
Stats Elevation 1,187 ft / 362 m (AMSL)
Location 44.569061° -72.018434°
Runways 1
Magnetic Variation 14.858° W
Sunrise 2017-12-13 12:17:57 UTC / 2017-12-13 07:17:57 Local
Sunset 2017-12-13 21:09:37 UTC / 2017-12-13 16:09:37 Local
Advertisement - Login to hide

Runways

ID Width Length Bearing (true) Bearing (mag) Surface Threshold Offset Overrun Length
02 60 ft / 18 m 3,304 ft / 1,007 m 8.42° 23.28° Asphalt 0 ft / 0 m 0 ft / 0 m
20 60 ft / 18 m 3,304 ft / 1,007 m 188.42° 203.28° Asphalt 0 ft / 0 m 0 ft / 0 m

Map

Weather


0- 5 10 15 20 25 30 35+ Temperature / ° C

Clouds and Precipitation
Forecast for 2017-12-14 06:00 UTC. Updated an hour ago

Ground ~20,000 ft ~40,000 ft Winds

METAR

KCDA 140415Z AUTO 24010G19KT 10SM CLR M14/M17 A2939 RMK AO2 T11361170

TAF

Not found

Frequencies

Recorded 119.27 MHz AWOS 3
Approach 125.70 MHz BOSTON APP/DEP
Unicom 122.80 MHz CTAF/UNICOM
Warning: Do not use this data for real-world aviation or navigation. No guarantee of current accuracy is given.